createdAt,value
2023-05-16T00:01:30.620Z,99.90
2023-05-16T00:03:59.924Z,99.90
2023-05-16T00:06:28.012Z,99.90
2023-05-16T00:08:55.744Z,99.90
2023-05-16T00:11:23.465Z,99.90
2023-05-16T00:13:51.609Z,99.90
2023-05-16T00:16:21.686Z,99.90
2023-05-16T00:18:49.766Z,99.90
2023-05-16T00:21:19.739Z,99.90
2023-05-16T00:23:48.754Z,99.90
2023-05-16T00:26:16.499Z,99.90
2023-05-16T00:28:44.185Z,99.90
2023-05-16T00:31:11.941Z,99.90
2023-05-16T00:33:39.645Z,99.90
2023-05-16T00:36:07.894Z,99.90
2023-05-16T00:38:37.481Z,99.90
2023-05-16T00:41:05.311Z,99.90
2023-05-16T00:43:33.064Z,99.90
2023-05-16T00:46:01.153Z,99.90
2023-05-16T00:48:29.084Z,99.90
2023-05-16T00:50:56.993Z,99.90
2023-05-16T00:53:25.211Z,99.90
2023-05-16T00:55:54.713Z,99.90
2023-05-16T00:58:23.705Z,99.90
2023-05-16T01:00:51.656Z,99.90
2023-05-16T01:03:19.930Z,99.90
2023-05-16T01:05:48.151Z,99.90
2023-05-16T01:08:15.870Z,99.90
2023-05-16T01:10:54.430Z,99.90
2023-05-16T01:13:32.206Z,99.90
2023-05-16T01:16:05.838Z,99.90
2023-05-16T01:18:42.329Z,99.90
2023-05-16T01:21:17.363Z,99.90
2023-05-16T01:23:53.477Z,99.90
2023-05-16T01:26:23.985Z,99.90
2023-05-16T01:28:52.924Z,99.90
2023-05-16T01:31:21.086Z,99.90
2023-05-16T01:33:49.274Z,99.90
2023-05-16T01:36:25.336Z,99.90
2023-05-16T01:39:02.267Z,99.90
2023-05-16T01:41:42.265Z,99.90
2023-05-16T01:44:19.376Z,99.90
2023-05-16T01:46:49.310Z,99.90
2023-05-16T01:49:21.329Z,99.90
2023-05-16T01:51:52.946Z,99.90
2023-05-16T01:54:22.677Z,99.90
2023-05-16T01:56:54.445Z,99.90
2023-05-16T01:59:22.960Z,99.90
2023-05-16T02:01:50.769Z,99.90
2023-05-16T02:04:18.831Z,99.90
2023-05-16T02:06:47.006Z,99.90
2023-05-16T02:09:14.695Z,99.90
2023-05-16T02:11:42.410Z,99.90
2023-05-16T02:14:11.492Z,99.90
2023-05-16T02:16:39.403Z,99.90
2023-05-16T02:19:07.190Z,99.90
2023-05-16T02:21:34.938Z,99.90
2023-05-16T02:24:02.699Z,99.90
2023-05-16T02:26:30.489Z,99.90
2023-05-16T02:28:58.232Z,99.90
2023-05-16T02:31:31.423Z,99.90
2023-05-16T02:33:59.408Z,99.90
2023-05-16T02:36:27.380Z,99.90
2023-05-16T02:38:55.658Z,99.90
2023-05-16T02:41:24.018Z,99.90
2023-05-16T02:43:51.728Z,99.90
2023-05-16T02:46:24.121Z,99.90
2023-05-16T02:48:53.276Z,99.90
2023-05-16T02:51:22.702Z,99.90
2023-05-16T02:53:50.792Z,99.90
2023-05-16T02:56:18.993Z,99.90
2023-05-16T02:58:48.363Z,99.90
2023-05-16T03:01:16.331Z,99.90
2023-05-16T03:03:44.164Z,99.90
2023-05-16T03:06:13.656Z,99.90
2023-05-16T03:08:41.523Z,99.90
2023-05-16T03:11:09.275Z,99.90
2023-05-16T03:13:36.974Z,99.90
2023-05-16T03:16:05.206Z,99.90
2023-05-16T03:18:33.234Z,99.90
2023-05-16T03:21:01.930Z,99.90
2023-05-16T03:23:31.096Z,99.90
2023-05-16T03:25:58.842Z,99.90
2023-05-16T03:28:27.836Z,99.90
2023-05-16T03:30:55.737Z,99.90
2023-05-16T03:33:23.682Z,99.90
2023-05-16T03:35:52.135Z,99.90
2023-05-16T03:38:19.927Z,99.90
2023-05-16T03:40:49.094Z,99.90
2023-05-16T03:43:16.962Z,99.90
2023-05-16T03:45:44.723Z,99.90
2023-05-16T03:48:12.623Z,99.90
2023-05-16T03:50:41.146Z,99.90
2023-05-16T03:53:09.870Z,99.90
2023-05-16T03:55:37.646Z,99.90
2023-05-16T03:58:07.698Z,99.90
2023-05-16T04:00:36.702Z,99.90
2023-05-16T04:03:04.964Z,99.90
2023-05-16T04:05:32.859Z,99.90
2023-05-16T04:08:00.655Z,99.90
2023-05-16T04:10:28.394Z,99.90
2023-05-16T04:12:56.131Z,99.90
2023-05-16T04:15:25.494Z,99.90
2023-05-16T04:17:53.439Z,99.90
2023-05-16T04:20:21.277Z,99.90
2023-05-16T04:22:49.334Z,99.90
2023-05-16T04:25:17.234Z,99.90
2023-05-16T04:27:44.961Z,99.90
2023-05-16T04:30:14.585Z,99.90
2023-05-16T04:32:44.060Z,99.90
2023-05-16T04:35:12.131Z,99.90
2023-05-16T04:37:39.854Z,99.90
2023-05-16T04:40:09.823Z,99.90
2023-05-16T04:42:37.566Z,99.90
2023-05-16T04:45:06.694Z,99.90
2023-05-16T04:47:34.561Z,99.90
2023-05-16T04:50:03.803Z,99.90
2023-05-16T04:52:31.519Z,99.90
2023-05-16T04:55:00.452Z,99.90
2023-05-16T04:57:28.733Z,99.90
2023-05-16T04:59:56.511Z,99.90
2023-05-16T05:02:24.341Z,99.90
2023-05-16T05:04:52.517Z,99.90
2023-05-16T05:07:21.648Z,99.90
2023-05-16T05:09:49.354Z,99.90
2023-05-16T05:12:17.106Z,99.90
2023-05-16T05:14:44.826Z,99.90
2023-05-16T05:17:12.605Z,99.90
2023-05-16T05:19:40.588Z,99.90
2023-05-16T05:22:08.604Z,99.90
2023-05-16T05:24:37.736Z,99.90
2023-05-16T05:27:05.787Z,99.90
2023-05-16T05:29:33.869Z,99.90
2023-05-16T05:32:01.781Z,99.90
2023-05-16T05:34:29.566Z,99.90
2023-05-16T05:36:57.520Z,99.90
2023-05-16T05:39:26.267Z,99.90
2023-05-16T05:41:55.326Z,99.90
2023-05-16T05:44:23.040Z,99.90
2023-05-16T05:46:51.267Z,99.90
2023-05-16T05:49:19.074Z,99.90
2023-05-16T05:51:46.878Z,99.90
2023-05-16T05:54:14.906Z,99.90
2023-05-16T05:56:42.636Z,99.90
2023-05-16T05:59:12.030Z,99.90
2023-05-16T06:01:40.214Z,99.90
2023-05-16T06:04:08.118Z,99.90
2023-05-16T06:06:35.998Z,99.90
2023-05-16T06:09:03.738Z,99.90
2023-05-16T06:11:31.887Z,99.90
2023-05-16T06:13:59.615Z,99.90
2023-05-16T06:16:28.887Z,99.90
2023-05-16T06:18:56.662Z,99.90
2023-05-16T06:21:24.486Z,99.90
2023-05-16T06:23:52.265Z,99.90
2023-05-16T06:26:20.391Z,99.90
2023-05-16T06:28:48.155Z,99.90
2023-05-16T06:31:16.021Z,99.90
2023-05-16T06:33:45.839Z,99.90
2023-05-16T06:36:13.844Z,99.90
2023-05-16T06:38:41.571Z,99.90
2023-05-16T06:41:09.274Z,99.90
2023-05-16T06:43:37.040Z,99.90
2023-05-16T06:46:04.969Z,99.90
2023-05-16T06:48:32.857Z,99.90
2023-05-16T06:51:01.980Z,99.90
2023-05-16T06:53:29.863Z,99.90
2023-05-16T06:55:57.615Z,99.90
2023-05-16T06:58:25.422Z,99.90
2023-05-16T07:00:53.269Z,99.90
2023-05-16T07:03:21.499Z,99.90
2023-05-16T07:05:51.594Z,99.90
2023-05-16T07:08:20.776Z,99.90
2023-05-16T07:10:48.554Z,99.90
2023-05-16T07:13:16.323Z,99.90
2023-05-16T07:15:44.112Z,99.90
2023-05-16T07:18:12.080Z,99.90
2023-05-16T07:20:39.969Z,99.90
2023-05-16T07:23:07.769Z,99.90
2023-05-16T07:25:37.298Z,99.90
2023-05-16T07:28:05.250Z,99.90
2023-05-16T07:30:33.107Z,99.90
2023-05-16T07:33:00.908Z,99.90
2023-05-16T07:35:29.033Z,99.90
2023-05-16T07:37:57.031Z,99.90
2023-05-16T07:40:28.182Z,99.90
2023-05-16T07:42:57.415Z,99.90
2023-05-16T07:45:25.450Z,99.90
2023-05-16T07:47:53.323Z,99.90
2023-05-16T07:50:21.226Z,99.90
2023-05-16T07:52:49.030Z,99.90
2023-05-16T07:55:16.936Z,99.90
2023-05-16T07:57:44.886Z,99.90
2023-05-16T08:00:15.296Z,99.90
2023-05-16T08:02:43.330Z,99.90
2023-05-16T08:05:11.391Z,99.90
2023-05-16T08:07:39.210Z,99.90
2023-05-16T08:10:07.997Z,99.90
2023-05-16T08:12:36.052Z,99.90
2023-05-16T08:15:04.422Z,99.90
2023-05-16T08:17:33.577Z,99.90
2023-05-16T08:20:01.969Z,99.90
2023-05-16T08:22:29.829Z,99.90
2023-05-16T08:24:58.320Z,99.90
2023-05-16T08:27:26.232Z,99.90
2023-05-16T08:29:54.225Z,99.90
2023-05-16T08:32:23.160Z,99.90
2023-05-16T08:34:52.358Z,99.90
2023-05-16T08:37:20.134Z,99.90
2023-05-16T08:39:47.906Z,99.90
2023-05-16T08:42:15.943Z,99.90
2023-05-16T08:44:43.794Z,99.90
2023-05-16T08:47:18.934Z,99.90
2023-05-16T08:49:49.073Z,99.90
2023-05-16T08:52:20.767Z,99.90
2023-05-16T08:55:01.921Z,99.90
2023-05-16T08:57:38.316Z,99.90
2023-05-16T09:00:14.697Z,99.90
2023-05-16T09:02:44.258Z,99.90
2023-05-16T09:05:13.879Z,99.90
2023-05-16T09:07:43.835Z,99.90
2023-05-16T09:10:12.800Z,99.90
2023-05-16T09:12:41.966Z,99.90
2023-05-16T09:15:12.299Z,99.90
2023-05-16T09:17:44.882Z,99.90
2023-05-16T09:20:14.746Z,99.90
2023-05-16T09:22:53.049Z,99.90
2023-05-16T09:25:30.167Z,99.00
2023-05-16T09:28:01.427Z,98.60
2023-05-16T09:30:32.116Z,98.80
2023-05-16T09:33:00.415Z,98.50
2023-05-16T09:35:43.238Z,95.90
2023-05-16T09:38:17.278Z,97.90
2023-05-16T09:40:46.473Z,97.00
2023-05-16T09:43:18.172Z,97.00
2023-05-16T09:45:50.814Z,94.90
2023-05-16T09:48:19.478Z,96.20
2023-05-16T09:50:52.850Z,95.70
2023-05-16T09:53:28.434Z,93.60
2023-05-16T09:56:03.844Z,95.80
2023-05-16T09:58:32.741Z,94.70
2023-05-16T10:01:01.356Z,94.10
2023-05-16T10:03:30.209Z,93.00
2023-05-16T10:05:58.545Z,93.80
2023-05-16T10:08:27.948Z,94.40
2023-05-16T10:10:57.228Z,93.10
2023-05-16T10:13:29.277Z,92.70
2023-05-16T10:15:58.052Z,91.50
2023-05-16T10:18:30.668Z,92.30
2023-05-16T10:20:59.419Z,90.80
2023-05-16T10:23:29.573Z,91.70
2023-05-16T10:25:59.980Z,91.40
2023-05-16T10:28:29.554Z,91.20
2023-05-16T10:30:57.657Z,90.90
2023-05-16T10:33:26.040Z,91.90
2023-05-16T10:35:54.579Z,92.10
2023-05-16T10:38:24.462Z,90.00
2023-05-16T10:40:53.918Z,89.20
2023-05-16T10:43:26.642Z,90.30
2023-05-16T10:45:58.757Z,91.20
2023-05-16T10:48:33.920Z,90.00
2023-05-16T10:51:03.900Z,91.20
2023-05-16T10:53:33.539Z,87.10
2023-05-16T10:56:12.870Z,83.40
2023-05-16T10:58:45.480Z,86.90
2023-05-16T11:01:18.066Z,88.00
2023-05-16T11:04:06.243Z,86.00
2023-05-16T11:06:36.189Z,89.00
2023-05-16T11:09:09.990Z,86.90
2023-05-16T11:11:46.519Z,84.90
2023-05-16T11:14:22.166Z,84.00
2023-05-16T11:16:51.726Z,81.90
2023-05-16T11:19:35.314Z,89.70
2023-05-16T11:22:07.430Z,87.40
2023-05-16T11:24:36.724Z,89.60
2023-05-16T11:27:06.957Z,82.30
2023-05-16T11:29:36.280Z,80.30
2023-05-16T11:32:06.374Z,80.50
2023-05-16T11:34:39.536Z,76.60
2023-05-16T11:37:07.537Z,80.10
2023-05-16T11:39:35.667Z,78.60
2023-05-16T11:42:04.880Z,78.90
2023-05-16T11:44:33.673Z,78.90
2023-05-16T11:47:02.418Z,79.30
2023-05-16T11:49:30.670Z,79.10
2023-05-16T11:51:58.647Z,76.20
2023-05-16T11:54:26.837Z,77.30
2023-05-16T11:56:55.443Z,75.20
2023-05-16T11:59:24.661Z,72.60
2023-05-16T12:01:53.035Z,74.00
2023-05-16T12:04:22.293Z,76.50
2023-05-16T12:07:01.459Z,76.30
2023-05-16T12:09:29.465Z,78.80
2023-05-16T12:11:57.691Z,74.70
2023-05-16T12:14:27.506Z,76.40
2023-05-16T12:16:55.899Z,74.90
2023-05-16T12:19:24.050Z,73.00
2023-05-16T12:21:54.978Z,74.40
2023-05-16T12:24:22.889Z,75.70
2023-05-16T12:26:54.329Z,77.10
2023-05-16T12:29:25.277Z,78.00
2023-05-16T12:31:55.342Z,76.90
2023-05-16T12:34:23.387Z,72.30
2023-05-16T12:36:54.812Z,73.30
2023-05-16T12:39:23.880Z,72.20
2023-05-16T12:41:51.704Z,75.00
2023-05-16T12:44:20.400Z,72.30
2023-05-16T12:46:51.484Z,74.70
2023-05-16T12:49:23.101Z,71.80
2023-05-16T12:51:52.348Z,68.90
2023-05-16T12:54:20.530Z,68.90
2023-05-16T12:56:48.458Z,74.90
2023-05-16T12:59:16.672Z,67.20
2023-05-16T13:01:46.336Z,71.10
2023-05-16T13:04:19.054Z,68.30
2023-05-16T13:06:58.750Z,70.00
2023-05-16T13:09:32.164Z,70.70
2023-05-16T13:12:00.660Z,69.10
2023-05-16T13:14:28.532Z,69.60
2023-05-16T13:16:56.553Z,72.00
2023-05-16T13:19:24.609Z,72.00
2023-05-16T13:21:53.794Z,72.70
2023-05-16T13:24:21.590Z,75.00
2023-05-16T13:26:49.435Z,74.40
2023-05-16T13:29:17.198Z,76.60
2023-05-16T13:31:45.181Z,77.50
2023-05-16T13:34:13.040Z,76.90
2023-05-16T13:36:52.925Z,76.60
2023-05-16T13:39:23.535Z,76.40
2023-05-16T13:41:51.653Z,77.00
2023-05-16T13:44:19.629Z,80.60
2023-05-16T13:46:47.570Z,72.10
2023-05-16T13:49:15.442Z,69.60
2023-05-16T13:51:43.226Z,72.50
2023-05-16T13:54:11.017Z,74.20
2023-05-16T13:56:40.376Z,74.50
2023-05-16T13:59:09.683Z,73.00
2023-05-16T14:01:38.776Z,73.70
2023-05-16T14:04:06.840Z,73.20
2023-05-16T14:06:35.725Z,77.50
2023-05-16T14:09:04.387Z,73.40
2023-05-16T14:11:32.242Z,74.10
2023-05-16T14:14:01.423Z,72.00
2023-05-16T14:16:31.187Z,73.40
2023-05-16T14:18:59.067Z,67.50
2023-05-16T14:21:27.641Z,67.30
2023-05-16T14:23:55.504Z,69.30
2023-05-16T14:26:25.307Z,66.40
2023-05-16T14:28:53.129Z,67.60
2023-05-16T14:31:22.305Z,67.30
2023-05-16T14:33:50.377Z,69.40
2023-05-16T14:36:18.155Z,68.30
2023-05-16T14:38:45.938Z,69.60
2023-05-16T14:41:14.488Z,70.70
2023-05-16T14:43:42.279Z,73.20
2023-05-16T14:46:10.167Z,74.30
2023-05-16T14:48:39.614Z,74.60
2023-05-16T14:51:08.135Z,76.20
2023-05-16T14:53:35.946Z,76.80
2023-05-16T14:56:04.401Z,77.40
2023-05-16T14:58:32.275Z,74.30
2023-05-16T15:01:00.257Z,77.50
2023-05-16T15:03:28.326Z,77.20
2023-05-16T15:05:57.859Z,76.00
2023-05-16T15:08:25.892Z,77.20
2023-05-16T15:10:55.843Z,77.50
2023-05-16T15:13:23.667Z,77.10
2023-05-16T15:15:51.867Z,78.00
2023-05-16T15:18:19.698Z,80.20
2023-05-16T15:20:47.485Z,78.40
2023-05-16T15:23:16.669Z,76.90
2023-05-16T15:25:44.688Z,77.30
2023-05-16T15:28:12.470Z,77.60
2023-05-16T15:30:40.401Z,77.50
2023-05-16T15:33:08.217Z,78.70
2023-05-16T15:35:36.012Z,75.60
2023-05-16T15:38:03.864Z,75.40
2023-05-16T15:40:33.061Z,75.10
2023-05-16T15:43:00.828Z,74.90
2023-05-16T15:45:29.294Z,77.10
2023-05-16T15:47:57.550Z,77.30
2023-05-16T15:50:25.512Z,73.60
2023-05-16T15:52:53.617Z,74.10
2023-05-16T15:55:22.020Z,73.30
2023-05-16T15:57:51.147Z,72.80
2023-05-16T16:00:19.306Z,75.50
2023-05-16T16:02:48.223Z,74.40
2023-05-16T16:05:16.317Z,74.60
2023-05-16T16:07:44.137Z,74.10
2023-05-16T16:10:12.820Z,74.80
2023-05-16T16:12:40.822Z,75.40
2023-05-16T16:15:11.804Z,73.30
2023-05-16T16:17:39.648Z,74.20
2023-05-16T16:20:08.400Z,74.30
2023-05-16T16:22:36.325Z,75.20
2023-05-16T16:25:04.212Z,74.60
2023-05-16T16:27:31.986Z,76.80
2023-05-16T16:29:59.854Z,77.00
2023-05-16T16:32:29.112Z,77.80
2023-05-16T16:34:57.041Z,78.60
2023-05-16T16:37:24.808Z,78.80
2023-05-16T16:39:52.759Z,79.20
2023-05-16T16:42:20.735Z,76.80
2023-05-16T16:44:49.063Z,77.20
2023-05-16T16:47:16.868Z,78.60
2023-05-16T16:49:46.289Z,79.50
2023-05-16T16:52:14.032Z,77.80
2023-05-16T16:54:42.007Z,79.30
2023-05-16T16:57:09.831Z,78.60
2023-05-16T16:59:37.618Z,79.00
2023-05-16T17:02:05.768Z,80.90
2023-05-16T17:04:34.936Z,82.30
2023-05-16T17:07:04.072Z,81.10
2023-05-16T17:09:31.951Z,79.90
2023-05-16T17:12:04.488Z,78.50
2023-05-16T17:14:32.241Z,75.60
2023-05-16T17:17:00.137Z,75.40
2023-05-16T17:19:28.080Z,76.60
2023-05-16T17:21:56.450Z,78.20
2023-05-16T17:24:25.591Z,76.90
2023-05-16T17:26:53.713Z,76.40
2023-05-16T17:29:21.565Z,76.10
2023-05-16T17:31:51.765Z,78.30
2023-05-16T17:34:19.905Z,77.20
2023-05-16T17:36:47.875Z,76.20
2023-05-16T17:39:16.846Z,78.10
2023-05-16T17:41:46.114Z,78.30
2023-05-16T17:44:14.138Z,77.60
2023-05-16T17:46:42.547Z,78.20
2023-05-16T17:49:10.616Z,77.50
2023-05-16T17:51:52.485Z,78.00
2023-05-16T17:54:22.006Z,79.80
2023-05-16T17:56:53.481Z,80.40
2023-05-16T17:59:21.376Z,81.10
2023-05-16T18:01:49.255Z,81.40
2023-05-16T18:04:18.130Z,83.70
2023-05-16T18:06:46.166Z,84.10
2023-05-16T18:09:14.996Z,84.60
2023-05-16T18:11:43.013Z,84.60
2023-05-16T18:14:12.853Z,85.80
2023-05-16T18:16:41.034Z,86.40
2023-05-16T18:19:09.019Z,88.20
2023-05-16T18:21:38.166Z,88.90
2023-05-16T18:24:08.245Z,89.50
2023-05-16T18:26:36.708Z,89.50
2023-05-16T18:29:04.725Z,89.00
2023-05-16T18:31:34.066Z,88.90
2023-05-16T18:34:02.864Z,89.30
2023-05-16T18:36:30.669Z,88.70
2023-05-16T18:38:58.414Z,89.20
2023-05-16T18:41:26.938Z,89.90
2023-05-16T18:43:56.408Z,89.40
2023-05-16T18:46:24.236Z,89.40
2023-05-16T18:48:57.508Z,88.80
2023-05-16T18:51:25.455Z,88.40
2023-05-16T18:53:53.690Z,88.70
2023-05-16T18:56:22.469Z,88.90
2023-05-16T18:58:50.750Z,88.60
2023-05-16T19:01:22.137Z,89.70
2023-05-16T19:03:50.332Z,89.30
2023-05-16T19:06:19.583Z,89.20
2023-05-16T19:08:48.494Z,89.20
2023-05-16T19:11:17.295Z,90.10
2023-05-16T19:13:45.486Z,90.30
2023-05-16T19:16:13.369Z,90.30
2023-05-16T19:18:41.499Z,90.40
2023-05-16T19:21:10.928Z,90.10
2023-05-16T19:23:40.037Z,90.20
2023-05-16T19:26:07.851Z,90.20
2023-05-16T19:28:36.051Z,90.50
2023-05-16T19:31:03.945Z,91.00
2023-05-16T19:33:32.733Z,90.70
2023-05-16T19:36:00.789Z,90.50
2023-05-16T19:38:28.598Z,90.40
2023-05-16T19:40:57.761Z,90.10
2023-05-16T19:43:25.583Z,90.10
2023-05-16T19:45:53.623Z,90.00
2023-05-16T19:48:21.617Z,89.60
2023-05-16T19:50:49.564Z,90.10
2023-05-16T19:53:17.386Z,90.20
2023-05-16T19:55:46.695Z,90.80
2023-05-16T19:58:15.780Z,90.70
2023-05-16T20:00:43.587Z,90.90
2023-05-16T20:03:11.562Z,90.50
2023-05-16T20:05:39.529Z,90.70
2023-05-16T20:08:07.311Z,91.20
2023-05-16T20:10:35.539Z,91.40
2023-05-16T20:13:03.364Z,91.10
2023-05-16T20:15:32.503Z,91.30
2023-05-16T20:18:00.342Z,91.20
2023-05-16T20:20:29.815Z,90.90
2023-05-16T20:22:57.597Z,91.20
2023-05-16T20:25:25.716Z,91.40
2023-05-16T20:27:53.539Z,91.70
2023-05-16T20:30:21.323Z,91.90
2023-05-16T20:32:50.524Z,91.50
2023-05-16T20:35:18.352Z,91.70
2023-05-16T20:37:46.232Z,92.20
2023-05-16T20:40:14.097Z,92.50
2023-05-16T20:42:42.118Z,92.50
2023-05-16T20:45:10.889Z,92.20
2023-05-16T20:47:38.684Z,92.50
2023-05-16T20:50:09.092Z,92.50
2023-05-16T20:52:36.960Z,93.00
2023-05-16T20:55:05.033Z,93.30
2023-05-16T20:57:32.800Z,93.10
2023-05-16T21:00:00.587Z,92.90
2023-05-16T21:02:28.452Z,93.30
2023-05-16T21:04:59.236Z,93.80
2023-05-16T21:07:28.693Z,93.80
2023-05-16T21:09:56.504Z,93.70
2023-05-16T21:12:24.387Z,93.70
2023-05-16T21:14:52.257Z,93.60
2023-05-16T21:17:20.109Z,93.50
2023-05-16T21:19:47.934Z,93.30
2023-05-16T21:22:15.753Z,93.50
2023-05-16T21:24:44.838Z,93.90
2023-05-16T21:27:12.595Z,94.10
2023-05-16T21:29:40.370Z,94.50
2023-05-16T21:32:09.321Z,94.60
2023-05-16T21:34:38.268Z,94.80
2023-05-16T21:37:07.217Z,95.00
2023-05-16T21:39:35.324Z,95.20
2023-05-16T21:42:04.676Z,95.60
2023-05-16T21:44:32.501Z,96.00
2023-05-16T21:47:00.254Z,96.40
2023-05-16T21:49:28.015Z,96.10
2023-05-16T21:51:56.024Z,96.20
2023-05-16T21:54:23.777Z,96.60
2023-05-16T21:56:53.089Z,96.70
2023-05-16T21:59:22.223Z,97.00
2023-05-16T22:01:50.330Z,96.80
2023-05-16T22:04:18.248Z,96.90
2023-05-16T22:06:46.097Z,97.30
2023-05-16T22:09:13.836Z,97.80
2023-05-16T22:11:41.618Z,97.90
2023-05-16T22:14:09.401Z,98.20
2023-05-16T22:16:38.710Z,98.20
2023-05-16T22:19:06.690Z,98.20
2023-05-16T22:21:34.563Z,98.20
2023-05-16T22:24:02.295Z,98.00
2023-05-16T22:26:30.102Z,98.20
2023-05-16T22:28:57.841Z,98.10
2023-05-16T22:31:25.585Z,97.70
2023-05-16T22:33:54.900Z,97.70
2023-05-16T22:36:22.692Z,97.50
2023-05-16T22:38:50.451Z,97.80
2023-05-16T22:41:18.187Z,97.60
2023-05-16T22:43:45.936Z,97.20
2023-05-16T22:46:15.200Z,96.80
2023-05-16T22:48:43.053Z,96.90
2023-05-16T22:51:12.331Z,97.50
2023-05-16T22:53:40.508Z,97.50
2023-05-16T22:56:08.743Z,97.60
2023-05-16T22:58:36.923Z,97.50
2023-05-16T23:01:05.767Z,97.40
2023-05-16T23:03:34.181Z,97.30
2023-05-16T23:06:02.076Z,97.40
2023-05-16T23:08:31.152Z,97.40
2023-05-16T23:10:58.912Z,97.20
2023-05-16T23:13:26.700Z,97.30
2023-05-16T23:15:54.475Z,98.10
2023-05-16T23:18:22.270Z,98.80
2023-05-16T23:20:50.173Z,99.20
2023-05-16T23:23:17.902Z,99.50
2023-05-16T23:25:48.606Z,99.50
2023-05-16T23:28:16.409Z,99.20
2023-05-16T23:30:44.168Z,99.20
2023-05-16T23:33:12.811Z,99.40
2023-05-16T23:35:40.767Z,99.70
2023-05-16T23:38:08.508Z,99.90
2023-05-16T23:40:36.575Z,99.70
2023-05-16T23:43:05.699Z,99.50
2023-05-16T23:45:33.510Z,99.40
2023-05-16T23:48:01.390Z,99.00
2023-05-16T23:50:29.243Z,99.20
2023-05-16T23:52:56.998Z,99.80
2023-05-16T23:55:24.870Z,99.90
2023-05-16T23:57:52.722Z,99.90
